Time;durP1;ratioP1;P1;durP2;ratioP2;P2;SDS_P1;SDS_P2;PMS_P1;PMS_P2;Temp;Humidity;BMP_temperature;BMP_pressure;BME280_temperature;BME280_humidity;BME280_pressure;Samples;Min_cycle;Max_cycle;Signal;HPM_P1;HPM_P2
2023/11/05 00:07:24;;;;;;;13.6;6.2;;;;;;;3.73;81.95;;;;;
2023/11/05 00:18:24;;;;;;;13.6;6.2;;;;;;;3.62;82.59;;;;;
2023/11/05 00:29:23;;;;;;;13.6;6.2;;;;;;;3.73;83.07;;;;;
2023/11/05 00:39:24;;;;;;;9.2;4.1;;;;;;;3.78;83.07;;;;;
2023/11/05 00:50:23;;;;;;;9.2;4.1;;;;;;;4.22;83.76;;;;;
2023/11/05 01:00:24;;;;;;;9.2;4.1;;;;;;;4.81;83.67;;;;;
2023/11/05 01:11:23;;;;;;;5;2.1;;;;;;;5.68;81.6;;;;;
2023/11/05 01:21:23;;;;;;;5;2.1;;;;;;;6.14;80.2;;;;;
2023/11/05 01:32:24;;;;;;;5;2.1;;;;;;;6.44;79.43;;;;;
2023/11/05 01:43:24;;;;;;;4;2;;;;;;;6.56;78.74;;;;;
2023/11/05 01:53:24;;;;;;;4;2;;;;;;;6.41;78.7;;;;;
2023/11/05 02:03:24;;;;;;;4;2;;;;;;;6.39;79.22;;;;;
2023/11/05 02:13:24;;;;;;;8.9;4.2;;;;;;;6.32;79.02;;;;;
2023/11/05 02:23:24;;;;;;;8.9;4.2;;;;;;;6.1;80.05;;;;;
2023/11/05 02:33:24;;;;;;;8.9;4.2;;;;;;;6.28;82.4;;;;;
2023/11/05 02:44:24;;;;;;;9.8;4.1;;;;;;;6.59;82.34;;;;;
2023/11/05 02:54:24;;;;;;;9.8;4.1;;;;;;;6.83;81.42;;;;;
2023/11/05 03:05:25;;;;;;;9.8;4.1;;;;;;;6.99;81.54;;;;;
2023/11/05 03:15:23;;;;;;;6.3;2.7;;;;;;;7.96;76.72;;;;;
2023/11/05 03:26:24;;;;;;;6.3;2.7;;;;;;;8.28;76.71;;;;;
2023/11/05 03:37:24;;;;;;;2.6;1.1;;;;;;;8.36;76.26;;;;;
2023/11/05 03:47:24;;;;;;;2.6;1.1;;;;;;;8.41;76.53;;;;;
2023/11/05 03:57:24;;;;;;;2.6;1.1;;;;;;;8.36;76.06;;;;;
2023/11/05 04:07:24;;;;;;;1.8;0.8;;;;;;;8.2;75.47;;;;;
2023/11/05 04:18:24;;;;;;;1.8;0.8;;;;;;;7.92;76.08;;;;;
2023/11/05 04:28:24;;;;;;;1.8;0.8;;;;;;;8;76.53;;;;;
2023/11/05 04:39:25;;;;;;;4.2;1.2;;;;;;;7.78;77.29;;;;;
2023/11/05 04:50:24;;;;;;;4.2;1.2;;;;;;;7.54;78.22;;;;;
2023/11/05 05:01:24;;;;;;;4.2;1.2;;;;;;;7.35;79.01;;;;;
2023/11/05 05:11:24;;;;;;;1.5;0.9;;;;;;;7.28;78.78;;;;;
2023/11/05 05:22:24;;;;;;;1.5;0.9;;;;;;;7.27;78.44;;;;;
2023/11/05 05:32:24;;;;;;;1.5;0.9;;;;;;;7.29;78.42;;;;;
2023/11/05 05:43:24;;;;;;;2.2;0.8;;;;;;;7.33;78.45;;;;;
2023/11/05 05:53:24;;;;;;;2.2;0.8;;;;;;;7.46;78.81;;;;;
2023/11/05 06:03:24;;;;;;;2.2;0.8;;;;;;;8.14;76.91;;;;;
2023/11/05 06:14:24;;;;;;;2.1;0.8;;;;;;;8.56;75.65;;;;;
2023/11/05 06:24:24;;;;;;;2.1;0.8;;;;;;;8.9;75.65;;;;;
2023/11/05 06:34:24;;;;;;;2.1;0.8;;;;;;;9.12;75.65;;;;;
2023/11/05 06:45:24;;;;;;;1.9;0.8;;;;;;;9.31;76.31;;;;;
2023/11/05 06:56:24;;;;;;;1.9;0.8;;;;;;;9.54;75.36;;;;;
2023/11/05 07:06:24;;;;;;;3.9;2;;;;;;;9.76;76.36;;;;;
2023/11/05 07:17:24;;;;;;;3.9;2;;;;;;;9.98;76.16;;;;;
2023/11/05 07:27:24;;;;;;;3.9;2;;;;;;;10.04;77.58;;;;;
2023/11/05 07:38:26;;;;;;;2.8;1.4;;;;;;;10.25;76.37;;;;;
2023/11/05 07:49:24;;;;;;;2.8;1.4;;;;;;;10.33;77.79;;;;;
2023/11/05 09:05:07;;;;;;;1.1;0.7;;;;;;;9.54;86.31;;;;;
2023/11/05 09:15:07;;;;;;;2.6;1.5;;;;;;;9.77;85.99;;;;;
2023/11/05 09:25:08;;;;;;;2.6;1.5;;;;;;;9.7;86.39;;;;;
2023/11/05 09:36:08;;;;;;;2.6;1.5;;;;;;;9.57;87.47;;;;;
2023/11/05 09:46:08;;;;;;;5.6;3.1;;;;;;;9.6;87.89;;;;;
2023/11/05 09:56:08;;;;;;;5.6;3.1;;;;;;;9.75;87.61;;;;;
2023/11/05 10:07:08;;;;;;;5.6;3.1;;;;;;;9.86;87.75;;;;;
2023/11/05 10:17:08;;;;;;;15.6;7.9;;;;;;;10.03;86.68;;;;;
2023/11/05 10:27:08;;;;;;;15.6;7.9;;;;;;;10.08;86.35;;;;;
2023/11/05 10:38:08;;;;;;;15.6;7.9;;;;;;;9.83;86.54;;;;;
2023/11/05 10:49:08;;;;;;;6.6;3.3;;;;;;;10.02;86.13;;;;;
2023/11/05 10:59:09;;;;;;;6.6;3.3;;;;;;;10.23;85.18;;;;;
2023/11/05 11:10:09;;;;;;;6.6;3.3;;;;;;;10.1;86.99;;;;;
2023/11/05 11:20:09;;;;;;;6.8;3.8;;;;;;;9.98;86.99;;;;;
2023/11/05 11:31:08;;;;;;;6.8;3.8;;;;;;;10.18;86.88;;;;;
2023/11/05 11:41:08;;;;;;;6.8;3.8;;;;;;;10.23;86.03;;;;;
2023/11/05 11:51:08;;;;;;;7.5;3.6;;;;;;;10.01;86.99;;;;;
2023/11/05 12:02:08;;;;;;;7.5;3.6;;;;;;;10.35;86.39;;;;;
2023/11/05 12:12:08;;;;;;;7.8;4.4;;;;;;;10.64;85.95;;;;;
2023/11/05 12:22:09;;;;;;;7.8;4.4;;;;;;;10.68;84.97;;;;;
2023/11/05 12:33:08;;;;;;;7.8;4.4;;;;;;;10.8;85.32;;;;;
2023/11/05 12:43:08;;;;;;;7.3;3.7;;;;;;;10.75;85;;;;;
2023/11/05 12:54:08;;;;;;;7.3;3.7;;;;;;;11.09;84.91;;;;;
2023/11/05 13:05:09;;;;;;;7.3;3.7;;;;;;;11.02;84.33;;;;;
2023/11/05 13:16:08;;;;;;;6.9;4.1;;;;;;;10.78;85.19;;;;;
2023/11/05 13:27:08;;;;;;;6.9;4.1;;;;;;;10.8;85.66;;;;;
2023/11/05 13:37:09;;;;;;;6.9;4.1;;;;;;;10.49;86.88;;;;;
2023/11/05 13:48:08;;;;;;;8.9;5.1;;;;;;;10.71;86.44;;;;;
2023/11/05 13:58:08;;;;;;;8.9;5.1;;;;;;;10.88;86.27;;;;;
2023/11/05 14:09:10;;;;;;;8.9;5.1;;;;;;;11.07;85.09;;;;;
2023/11/05 14:20:09;;;;;;;7.3;4;;;;;;;10.99;84.12;;;;;
2023/11/05 14:31:08;;;;;;;7.3;4;;;;;;;10.85;83.75;;;;;
2023/11/05 14:41:08;;;;;;;7.3;4;;;;;;;10.44;83.83;;;;;
2023/11/05 14:52:08;;;;;;;6.6;3.5;;;;;;;10.02;82.97;;;;;
2023/11/05 15:02:08;;;;;;;6.6;3.5;;;;;;;9.46;83.71;;;;;
2023/11/05 15:12:08;;;;;;;6.4;3.7;;;;;;;9.06;83.52;;;;;
2023/11/05 15:22:09;;;;;;;6.4;3.7;;;;;;;8.65;83.81;;;;;
2023/11/05 15:32:08;;;;;;;6.4;3.7;;;;;;;8.12;85.29;;;;;
2023/11/05 15:43:08;;;;;;;6.9;3.7;;;;;;;8.2;89.02;;;;;
2023/11/05 15:53:08;;;;;;;6.9;3.7;;;;;;;8.26;89.18;;;;;
2023/11/05 16:03:08;;;;;;;6.9;3.7;;;;;;;8.21;88.9;;;;;
2023/11/05 16:14:08;;;;;;;8;4.2;;;;;;;8.17;88.95;;;;;
2023/11/05 16:24:08;;;;;;;8;4.2;;;;;;;8.18;88.49;;;;;
2023/11/05 16:35:08;;;;;;;8;4.2;;;;;;;7.92;86.78;;;;;
2023/11/05 16:46:08;;;;;;;6.8;3.4;;;;;;;7.88;88.12;;;;;
2023/11/05 16:57:08;;;;;;;6.8;3.4;;;;;;;8.11;88.7;;;;;
2023/11/05 17:07:09;;;;;;;6.8;3.4;;;;;;;8.32;88.21;;;;;
2023/11/05 17:18:08;;;;;;;6;2.8;;;;;;;8.92;85.7;;;;;
2023/11/05 17:28:08;;;;;;;6;2.8;;;;;;;9.14;84.66;;;;;
2023/11/05 17:39:10;;;;;;;6;2.8;;;;;;;9.29;83.82;;;;;
2023/11/05 17:49:09;;;;;;;3.6;2;;;;;;;9.34;83.65;;;;;
2023/11/05 18:00:08;;;;;;;3.6;2;;;;;;;9.4;82.89;;;;;
2023/11/05 18:10:08;;;;;;;3.6;2;;;;;;;9.43;82.6;;;;;
2023/11/05 18:20:11;;;;;;;4.3;2.1;;;;;;;9.64;81.48;;;;;
2023/11/05 18:31:08;;;;;;;4.3;2.1;;;;;;;9.76;81.04;;;;;
2023/11/05 18:42:09;;;;;;;4.4;2.4;;;;;;;9.87;80.72;;;;;
2023/11/05 18:52:08;;;;;;;4.4;2.4;;;;;;;9.97;80.49;;;;;
2023/11/05 19:03:08;;;;;;;4.4;2.4;;;;;;;9.97;79.66;;;;;
2023/11/05 19:14:10;;;;;;;5.2;2.3;;;;;;;9.89;79.95;;;;;
2023/11/05 19:25:09;;;;;;;5.2;2.3;;;;;;;9.8;80.21;;;;;
2023/11/05 19:36:08;;;;;;;5.2;2.3;;;;;;;9.7;80.39;;;;;
2023/11/05 19:46:08;;;;;;;4.3;1.9;;;;;;;9.92;79.35;;;;;
2023/11/05 19:57:08;;;;;;;4.3;1.9;;;;;;;10.1;78.44;;;;;
2023/11/05 20:07:12;;;;;;;4.3;1.9;;;;;;;10.21;77.87;;;;;
2023/11/05 20:17:08;;;;;;;2.6;1.3;;;;;;;10.24;77.73;;;;;
2023/11/05 20:28:08;;;;;;;2.6;1.3;;;;;;;10.35;77.17;;;;;
2023/11/05 20:38:08;;;;;;;2.6;1.3;;;;;;;10.39;76.77;;;;;
2023/11/05 20:49:08;;;;;;;2.9;1.2;;;;;;;10.45;76.53;;;;;
2023/11/05 21:00:08;;;;;;;2.9;1.2;;;;;;;10.56;75.94;;;;;
2023/11/05 21:10:10;;;;;;;2.9;1.2;;;;;;;10.67;75.66;;;;;
2023/11/05 21:20:08;;;;;;;2.8;1.2;;;;;;;10.83;74.77;;;;;
2023/11/05 21:31:08;;;;;;;2.8;1.2;;;;;;;11.09;74.22;;;;;
2023/11/05 21:41:08;;;;;;;2.8;0.9;;;;;;;11.28;73.32;;;;;
2023/11/05 21:52:08;;;;;;;2.8;0.9;;;;;;;11.39;72.88;;;;;
2023/11/05 22:02:08;;;;;;;2.8;0.9;;;;;;;11.42;72.71;;;;;
2023/11/05 22:12:08;;;;;;;2.5;1.2;;;;;;;11.48;72.65;;;;;
2023/11/05 22:23:10;;;;;;;2.5;1.2;;;;;;;11.53;72.02;;;;;
2023/11/05 22:33:09;;;;;;;2.5;1.2;;;;;;;11.61;71.98;;;;;
2023/11/05 22:44:08;;;;;;;1.4;1;;;;;;;11.69;71.35;;;;;
2023/11/05 22:54:08;;;;;;;1.4;1;;;;;;;11.7;70.81;;;;;
2023/11/05 23:04:08;;;;;;;1.4;1;;;;;;;11.76;70.29;;;;;
2023/11/05 23:14:09;;;;;;;2.1;0.9;;;;;;;11.78;70.97;;;;;
2023/11/05 23:25:09;;;;;;;2.1;0.9;;;;;;;11.7;70.8;;;;;
2023/11/05 23:35:09;;;;;;;2.1;0.9;;;;;;;11.56;71.04;;;;;
2023/11/05 23:46:08;;;;;;;2;0.7;;;;;;;11.36;71.49;;;;;
2023/11/05 23:57:10;;;;;;;2;0.7;;;;;;;11.21;71.9;;;;;
